sensor_id;sensor_type;location;lat;lon;timestamp;P1;durP1;ratioP1;P2;durP2;ratioP2
5718;SDS011;2884;47.734;9.244;2022-07-15T00:00:17;3.40;;;2.07;;
5718;SDS011;2884;47.734;9.244;2022-07-15T00:02:42;3.17;;;2.27;;
5718;SDS011;2884;47.734;9.244;2022-07-15T00:05:08;6.17;;;2.37;;
5718;SDS011;2884;47.734;9.244;2022-07-15T00:07:34;2.30;;;2.10;;
5718;SDS011;2884;47.734;9.244;2022-07-15T00:10:01;3.73;;;2.50;;
5718;SDS011;2884;47.734;9.244;2022-07-15T00:12:53;10.67;;;3.17;;
5718;SDS011;2884;47.734;9.244;2022-07-15T00:15:21;2.33;;;2.00;;
5718;SDS011;2884;47.734;9.244;2022-07-15T00:17:48;6.87;;;2.70;;
5718;SDS011;2884;47.734;9.244;2022-07-15T00:20:14;5.47;;;2.40;;
5718;SDS011;2884;47.734;9.244;2022-07-15T00:22:40;4.43;;;2.23;;
5718;SDS011;2884;47.734;9.244;2022-07-15T00:25:07;5.57;;;2.50;;
5718;SDS011;2884;47.734;9.244;2022-07-15T00:27:33;13.63;;;2.50;;
5718;SDS011;2884;47.734;9.244;2022-07-15T00:29:59;3.67;;;2.50;;
5718;SDS011;2884;47.734;9.244;2022-07-15T00:32:24;5.23;;;2.80;;
5718;SDS011;2884;47.734;9.244;2022-07-15T00:34:50;8.63;;;4.40;;
5718;SDS011;2884;47.734;9.244;2022-07-15T00:37:18;8.20;;;4.10;;
5718;SDS011;2884;47.734;9.244;2022-07-15T00:39:44;5.83;;;3.50;;
5718;SDS011;2884;47.734;9.244;2022-07-15T00:42:13;8.07;;;3.10;;
5718;SDS011;2884;47.734;9.244;2022-07-15T00:44:58;8.57;;;5.07;;
5718;SDS011;2884;47.734;9.244;2022-07-15T00:47:24;4.73;;;2.10;;
5718;SDS011;2884;47.734;9.244;2022-07-15T00:49:49;6.03;;;2.60;;
5718;SDS011;2884;47.734;9.244;2022-07-15T00:52:15;5.03;;;2.67;;
5718;SDS011;2884;47.734;9.244;2022-07-15T00:54:42;2.90;;;2.30;;
5718;SDS011;2884;47.734;9.244;2022-07-15T00:57:09;4.30;;;2.40;;
5718;SDS011;2884;47.734;9.244;2022-07-15T00:59:35;4.57;;;3.33;;
5718;SDS011;2884;47.734;9.244;2022-07-15T01:02:01;3.33;;;2.57;;
5718;SDS011;2884;47.734;9.244;2022-07-15T01:04:27;7.13;;;3.10;;
5718;SDS011;2884;47.734;9.244;2022-07-15T01:06:53;5.57;;;2.87;;
5718;SDS011;2884;47.734;9.244;2022-07-15T01:09:19;2.20;;;2.00;;
5718;SDS011;2884;47.734;9.244;2022-07-15T01:11:45;5.70;;;2.90;;
5718;SDS011;2884;47.734;9.244;2022-07-15T01:14:12;10.30;;;2.70;;
5718;SDS011;2884;47.734;9.244;2022-07-15T01:16:38;4.90;;;2.30;;
5718;SDS011;2884;47.734;9.244;2022-07-15T01:19:03;7.63;;;2.23;;
5718;SDS011;2884;47.734;9.244;2022-07-15T01:21:29;4.40;;;2.40;;
5718;SDS011;2884;47.734;9.244;2022-07-15T01:23:55;5.07;;;2.80;;
5718;SDS011;2884;47.734;9.244;2022-07-15T01:26:21;6.70;;;2.90;;
5718;SDS011;2884;47.734;9.244;2022-07-15T01:28:46;6.67;;;2.80;;
5718;SDS011;2884;47.734;9.244;2022-07-15T01:31:12;3.03;;;2.83;;
5718;SDS011;2884;47.734;9.244;2022-07-15T01:33:37;3.73;;;2.30;;
5718;SDS011;2884;47.734;9.244;2022-07-15T01:36:04;3.17;;;2.43;;
5718;SDS011;2884;47.734;9.244;2022-07-15T01:38:29;14.37;;;2.83;;
5718;SDS011;2884;47.734;9.244;2022-07-15T01:40:55;5.57;;;2.83;;
5718;SDS011;2884;47.734;9.244;2022-07-15T01:43:21;2.67;;;2.43;;
5718;SDS011;2884;47.734;9.244;2022-07-15T01:45:47;7.90;;;2.50;;
5718;SDS011;2884;47.734;9.244;2022-07-15T01:48:13;4.43;;;2.60;;
5718;SDS011;2884;47.734;9.244;2022-07-15T01:50:58;3.20;;;2.83;;
5718;SDS011;2884;47.734;9.244;2022-07-15T01:53:25;4.67;;;2.30;;
5718;SDS011;2884;47.734;9.244;2022-07-15T01:55:51;2.93;;;2.30;;
5718;SDS011;2884;47.734;9.244;2022-07-15T01:58:17;13.83;;;3.13;;
5718;SDS011;2884;47.734;9.244;2022-07-15T02:00:43;2.57;;;2.37;;
5718;SDS011;2884;47.734;9.244;2022-07-15T02:03:09;6.47;;;3.50;;
5718;SDS011;2884;47.734;9.244;2022-07-15T02:05:35;3.60;;;3.30;;
5718;SDS011;2884;47.734;9.244;2022-07-15T02:08:01;3.90;;;2.50;;
5718;SDS011;2884;47.734;9.244;2022-07-15T02:10:27;5.10;;;2.57;;
5718;SDS011;2884;47.734;9.244;2022-07-15T02:13:05;3.67;;;2.87;;
5718;SDS011;2884;47.734;9.244;2022-07-15T02:15:34;4.33;;;3.47;;
5718;SDS011;2884;47.734;9.244;2022-07-15T02:17:59;11.47;;;4.20;;
5718;SDS011;2884;47.734;9.244;2022-07-15T02:20:25;3.33;;;2.70;;
5718;SDS011;2884;47.734;9.244;2022-07-15T02:22:51;5.80;;;2.97;;
5718;SDS011;2884;47.734;9.244;2022-07-15T02:25:17;21.47;;;10.00;;
5718;SDS011;2884;47.734;9.244;2022-07-15T02:27:42;20.37;;;10.00;;
5718;SDS011;2884;47.734;9.244;2022-07-15T02:30:08;25.60;;;12.70;;
5718;SDS011;2884;47.734;9.244;2022-07-15T02:32:34;19.07;;;8.70;;
5718;SDS011;2884;47.734;9.244;2022-07-15T02:35:00;13.50;;;6.97;;
5718;SDS011;2884;47.734;9.244;2022-07-15T02:37:25;9.90;;;5.00;;
5718;SDS011;2884;47.734;9.244;2022-07-15T02:39:51;13.17;;;5.90;;
5718;SDS011;2884;47.734;9.244;2022-07-15T02:42:17;13.23;;;5.77;;
5718;SDS011;2884;47.734;9.244;2022-07-15T02:44:42;5.73;;;4.13;;
5718;SDS011;2884;47.734;9.244;2022-07-15T02:47:08;9.43;;;4.30;;
5718;SDS011;2884;47.734;9.244;2022-07-15T02:49:33;8.67;;;3.90;;
5718;SDS011;2884;47.734;9.244;2022-07-15T02:51:59;4.10;;;2.87;;
5718;SDS011;2884;47.734;9.244;2022-07-15T02:54:24;4.00;;;3.13;;
5718;SDS011;2884;47.734;9.244;2022-07-15T02:56:50;4.30;;;2.77;;
5718;SDS011;2884;47.734;9.244;2022-07-15T02:59:17;3.10;;;2.60;;
5718;SDS011;2884;47.734;9.244;2022-07-15T03:01:42;8.70;;;2.90;;
5718;SDS011;2884;47.734;9.244;2022-07-15T03:04:08;5.27;;;2.30;;
5718;SDS011;2884;47.734;9.244;2022-07-15T03:06:33;4.23;;;2.40;;
5718;SDS011;2884;47.734;9.244;2022-07-15T03:08:59;4.33;;;2.83;;
5718;SDS011;2884;47.734;9.244;2022-07-15T03:11:25;4.13;;;2.47;;
5718;SDS011;2884;47.734;9.244;2022-07-15T03:13:50;3.37;;;2.80;;
5718;SDS011;2884;47.734;9.244;2022-07-15T03:16:16;5.27;;;3.13;;
5718;SDS011;2884;47.734;9.244;2022-07-15T03:18:41;5.83;;;2.50;;
5718;SDS011;2884;47.734;9.244;2022-07-15T03:21:07;4.80;;;2.27;;
5718;SDS011;2884;47.734;9.244;2022-07-15T03:23:32;5.80;;;2.90;;
5718;SDS011;2884;47.734;9.244;2022-07-15T03:25:58;6.63;;;2.90;;
5718;SDS011;2884;47.734;9.244;2022-07-15T03:28:24;3.63;;;2.50;;
5718;SDS011;2884;47.734;9.244;2022-07-15T03:30:49;5.53;;;2.70;;
5718;SDS011;2884;47.734;9.244;2022-07-15T03:33:15;6.47;;;2.43;;
5718;SDS011;2884;47.734;9.244;2022-07-15T03:35:40;3.57;;;2.50;;
5718;SDS011;2884;47.734;9.244;2022-07-15T03:38:08;9.87;;;2.60;;
5718;SDS011;2884;47.734;9.244;2022-07-15T03:40:34;6.73;;;2.27;;
5718;SDS011;2884;47.734;9.244;2022-07-15T03:42:59;3.37;;;2.10;;
5718;SDS011;2884;47.734;9.244;2022-07-15T03:45:25;2.67;;;2.40;;
5718;SDS011;2884;47.734;9.244;2022-07-15T03:47:50;3.00;;;2.73;;
5718;SDS011;2884;47.734;9.244;2022-07-15T03:50:16;5.77;;;3.07;;
5718;SDS011;2884;47.734;9.244;2022-07-15T03:52:42;2.60;;;2.20;;
5718;SDS011;2884;47.734;9.244;2022-07-15T03:55:08;4.00;;;2.90;;
5718;SDS011;2884;47.734;9.244;2022-07-15T03:57:35;5.50;;;2.40;;
5718;SDS011;2884;47.734;9.244;2022-07-15T04:00:00;2.90;;;2.30;;
5718;SDS011;2884;47.734;9.244;2022-07-15T04:02:26;8.93;;;3.70;;
5718;SDS011;2884;47.734;9.244;2022-07-15T04:04:52;5.60;;;2.70;;
5718;SDS011;2884;47.734;9.244;2022-07-15T04:07:17;4.67;;;2.77;;
5718;SDS011;2884;47.734;9.244;2022-07-15T04:09:43;4.73;;;3.10;;
5718;SDS011;2884;47.734;9.244;2022-07-15T04:12:09;4.30;;;2.83;;
5718;SDS011;2884;47.734;9.244;2022-07-15T04:14:35;5.90;;;2.87;;
5718;SDS011;2884;47.734;9.244;2022-07-15T04:17:01;5.50;;;2.70;;
5718;SDS011;2884;47.734;9.244;2022-07-15T04:19:27;4.57;;;2.80;;
5718;SDS011;2884;47.734;9.244;2022-07-15T04:21:53;3.70;;;2.80;;
5718;SDS011;2884;47.734;9.244;2022-07-15T04:24:19;8.53;;;3.20;;
5718;SDS011;2884;47.734;9.244;2022-07-15T04:26:45;4.87;;;3.20;;
5718;SDS011;2884;47.734;9.244;2022-07-15T04:29:10;4.80;;;2.40;;
5718;SDS011;2884;47.734;9.244;2022-07-15T04:31:36;5.73;;;2.70;;
5718;SDS011;2884;47.734;9.244;2022-07-15T04:34:01;5.47;;;2.70;;
5718;SDS011;2884;47.734;9.244;2022-07-15T04:36:27;8.23;;;2.70;;
5718;SDS011;2884;47.734;9.244;2022-07-15T04:38:52;6.03;;;2.90;;
5718;SDS011;2884;47.734;9.244;2022-07-15T04:41:18;5.73;;;2.87;;
5718;SDS011;2884;47.734;9.244;2022-07-15T04:43:43;4.37;;;2.87;;
5718;SDS011;2884;47.734;9.244;2022-07-15T04:46:09;3.47;;;2.40;;
5718;SDS011;2884;47.734;9.244;2022-07-15T04:48:34;5.60;;;3.00;;
5718;SDS011;2884;47.734;9.244;2022-07-15T04:51:19;5.50;;;2.63;;
5718;SDS011;2884;47.734;9.244;2022-07-15T04:53:44;3.03;;;2.70;;
5718;SDS011;2884;47.734;9.244;2022-07-15T04:56:10;5.67;;;3.27;;
5718;SDS011;2884;47.734;9.244;2022-07-15T04:58:35;2.43;;;2.10;;
5718;SDS011;2884;47.734;9.244;2022-07-15T05:01:01;3.43;;;2.30;;
5718;SDS011;2884;47.734;9.244;2022-07-15T05:03:27;4.57;;;2.40;;
5718;SDS011;2884;47.734;9.244;2022-07-15T05:05:52;5.40;;;2.60;;
5718;SDS011;2884;47.734;9.244;2022-07-15T05:08:18;13.73;;;3.30;;
5718;SDS011;2884;47.734;9.244;2022-07-15T05:10:45;10.30;;;4.27;;
5718;SDS011;2884;47.734;9.244;2022-07-15T05:13:11;11.50;;;6.87;;
5718;SDS011;2884;47.734;9.244;2022-07-15T05:15:37;8.83;;;4.23;;
5718;SDS011;2884;47.734;9.244;2022-07-15T05:18:02;7.63;;;3.63;;
5718;SDS011;2884;47.734;9.244;2022-07-15T05:20:28;5.20;;;2.90;;
5718;SDS011;2884;47.734;9.244;2022-07-15T05:22:53;10.60;;;4.17;;
5718;SDS011;2884;47.734;9.244;2022-07-15T05:25:19;9.90;;;4.27;;
5718;SDS011;2884;47.734;9.244;2022-07-15T05:27:45;4.50;;;3.07;;
5718;SDS011;2884;47.734;9.244;2022-07-15T05:30:11;6.10;;;3.00;;
5718;SDS011;2884;47.734;9.244;2022-07-15T05:32:38;3.80;;;2.60;;
5718;SDS011;2884;47.734;9.244;2022-07-15T05:35:04;9.57;;;2.80;;
5718;SDS011;2884;47.734;9.244;2022-07-15T05:37:30;7.63;;;3.03;;
5718;SDS011;2884;47.734;9.244;2022-07-15T05:39:55;6.40;;;2.77;;
5718;SDS011;2884;47.734;9.244;2022-07-15T05:42:23;2.70;;;2.50;;
5718;SDS011;2884;47.734;9.244;2022-07-15T05:44:49;3.10;;;2.20;;
5718;SDS011;2884;47.734;9.244;2022-07-15T05:47:15;5.20;;;2.20;;
5718;SDS011;2884;47.734;9.244;2022-07-15T05:49:41;8.10;;;2.53;;
5718;SDS011;2884;47.734;9.244;2022-07-15T05:52:07;10.13;;;2.80;;
5718;SDS011;2884;47.734;9.244;2022-07-15T05:54:33;6.63;;;2.40;;
5718;SDS011;2884;47.734;9.244;2022-07-15T05:56:59;5.50;;;2.20;;
5718;SDS011;2884;47.734;9.244;2022-07-15T05:59:24;7.43;;;2.80;;
5718;SDS011;2884;47.734;9.244;2022-07-15T06:01:50;4.80;;;2.30;;
5718;SDS011;2884;47.734;9.244;2022-07-15T06:04:15;5.77;;;2.50;;
5718;SDS011;2884;47.734;9.244;2022-07-15T06:06:41;5.23;;;2.87;;
5718;SDS011;2884;47.734;9.244;2022-07-15T06:09:06;2.83;;;2.30;;
5718;SDS011;2884;47.734;9.244;2022-07-15T06:11:32;4.23;;;2.00;;
5718;SDS011;2884;47.734;9.244;2022-07-15T06:13:59;6.20;;;2.87;;
5718;SDS011;2884;47.734;9.244;2022-07-15T06:16:24;5.80;;;2.47;;
5718;SDS011;2884;47.734;9.244;2022-07-15T06:18:50;3.27;;;2.07;;
5718;SDS011;2884;47.734;9.244;2022-07-15T06:21:16;8.43;;;2.47;;
5718;SDS011;2884;47.734;9.244;2022-07-15T06:23:42;4.60;;;2.03;;
5718;SDS011;2884;47.734;9.244;2022-07-15T06:26:07;5.70;;;2.10;;
5718;SDS011;2884;47.734;9.244;2022-07-15T06:28:34;5.80;;;2.60;;
5718;SDS011;2884;47.734;9.244;2022-07-15T06:31:00;13.60;;;2.60;;
5718;SDS011;2884;47.734;9.244;2022-07-15T06:33:26;3.00;;;2.00;;
5718;SDS011;2884;47.734;9.244;2022-07-15T06:35:52;2.50;;;1.77;;
5718;SDS011;2884;47.734;9.244;2022-07-15T06:38:17;4.70;;;2.30;;
5718;SDS011;2884;47.734;9.244;2022-07-15T06:40:43;5.40;;;3.00;;
5718;SDS011;2884;47.734;9.244;2022-07-15T06:43:09;6.93;;;2.80;;
5718;SDS011;2884;47.734;9.244;2022-07-15T06:45:36;5.90;;;2.13;;
5718;SDS011;2884;47.734;9.244;2022-07-15T06:48:01;7.10;;;2.03;;
5718;SDS011;2884;47.734;9.244;2022-07-15T06:50:27;3.93;;;1.93;;
5718;SDS011;2884;47.734;9.244;2022-07-15T06:52:56;9.63;;;2.00;;
5718;SDS011;2884;47.734;9.244;2022-07-15T06:55:21;4.60;;;1.80;;
5718;SDS011;2884;47.734;9.244;2022-07-15T06:57:47;10.53;;;2.10;;
5718;SDS011;2884;47.734;9.244;2022-07-15T07:00:12;4.23;;;2.33;;
5718;SDS011;2884;47.734;9.244;2022-07-15T07:02:40;4.87;;;1.80;;
5718;SDS011;2884;47.734;9.244;2022-07-15T07:05:06;2.93;;;2.00;;
5718;SDS011;2884;47.734;9.244;2022-07-15T07:07:33;13.07;;;2.00;;
5718;SDS011;2884;47.734;9.244;2022-07-15T07:10:00;2.73;;;1.77;;
5718;SDS011;2884;47.734;9.244;2022-07-15T07:12:25;4.90;;;1.50;;
5718;SDS011;2884;47.734;9.244;2022-07-15T07:14:51;8.10;;;2.00;;
5718;SDS011;2884;47.734;9.244;2022-07-15T07:17:18;4.40;;;1.93;;
5718;SDS011;2884;47.734;9.244;2022-07-15T07:19:46;5.13;;;1.63;;
5718;SDS011;2884;47.734;9.244;2022-07-15T07:22:12;4.57;;;2.10;;
5718;SDS011;2884;47.734;9.244;2022-07-15T07:24:38;6.83;;;1.83;;
5718;SDS011;2884;47.734;9.244;2022-07-15T07:27:03;8.27;;;1.80;;
5718;SDS011;2884;47.734;9.244;2022-07-15T07:29:30;4.50;;;1.83;;
5718;SDS011;2884;47.734;9.244;2022-07-15T07:31:55;6.10;;;1.97;;
5718;SDS011;2884;47.734;9.244;2022-07-15T07:34:21;4.03;;;1.60;;
5718;SDS011;2884;47.734;9.244;2022-07-15T07:36:46;7.43;;;2.00;;
5718;SDS011;2884;47.734;9.244;2022-07-15T07:39:13;4.27;;;1.80;;
5718;SDS011;2884;47.734;9.244;2022-07-15T07:41:39;3.60;;;2.20;;
5718;SDS011;2884;47.734;9.244;2022-07-15T07:44:05;13.10;;;1.90;;
5718;SDS011;2884;47.734;9.244;2022-07-15T07:46:31;3.73;;;1.87;;
5718;SDS011;2884;47.734;9.244;2022-07-15T07:48:57;3.63;;;2.00;;
5718;SDS011;2884;47.734;9.244;2022-07-15T07:51:23;5.77;;;2.07;;
5718;SDS011;2884;47.734;9.244;2022-07-15T07:53:49;3.83;;;1.97;;
5718;SDS011;2884;47.734;9.244;2022-07-15T07:56:14;3.00;;;1.73;;
5718;SDS011;2884;47.734;9.244;2022-07-15T07:58:40;7.00;;;2.60;;
5718;SDS011;2884;47.734;9.244;2022-07-15T08:01:06;4.43;;;2.00;;
5718;SDS011;2884;47.734;9.244;2022-07-15T08:03:31;6.23;;;2.10;;
5718;SDS011;2884;47.734;9.244;2022-07-15T08:05:57;4.97;;;2.07;;
5718;SDS011;2884;47.734;9.244;2022-07-15T08:08:23;2.23;;;1.80;;
5718;SDS011;2884;47.734;9.244;2022-07-15T08:10:50;7.50;;;1.97;;
5718;SDS011;2884;47.734;9.244;2022-07-15T08:13:18;5.73;;;1.90;;
5718;SDS011;2884;47.734;9.244;2022-07-15T08:15:45;4.97;;;2.07;;
5718;SDS011;2884;47.734;9.244;2022-07-15T08:18:11;3.60;;;1.87;;
5718;SDS011;2884;47.734;9.244;2022-07-15T08:20:37;2.83;;;1.60;;
5718;SDS011;2884;47.734;9.244;2022-07-15T08:23:03;6.67;;;1.93;;
5718;SDS011;2884;47.734;9.244;2022-07-15T08:25:34;3.73;;;2.13;;
5718;SDS011;2884;47.734;9.244;2022-07-15T08:28:04;4.50;;;2.07;;
5718;SDS011;2884;47.734;9.244;2022-07-15T08:30:31;8.40;;;2.43;;
5718;SDS011;2884;47.734;9.244;2022-07-15T08:32:58;4.23;;;2.33;;
5718;SDS011;2884;47.734;9.244;2022-07-15T08:35:25;3.67;;;1.90;;
5718;SDS011;2884;47.734;9.244;2022-07-15T08:37:52;4.00;;;2.07;;
5718;SDS011;2884;47.734;9.244;2022-07-15T08:40:17;4.37;;;1.90;;
5718;SDS011;2884;47.734;9.244;2022-07-15T08:42:43;6.57;;;1.97;;
5718;SDS011;2884;47.734;9.244;2022-07-15T08:45:11;3.10;;;1.87;;
5718;SDS011;2884;47.734;9.244;2022-07-15T08:47:39;3.20;;;2.30;;
5718;SDS011;2884;47.734;9.244;2022-07-15T08:50:10;5.23;;;2.33;;
5718;SDS011;2884;47.734;9.244;2022-07-15T08:52:37;4.47;;;2.00;;
5718;SDS011;2884;47.734;9.244;2022-07-15T08:55:04;9.70;;;2.30;;
5718;SDS011;2884;47.734;9.244;2022-07-15T08:57:31;8.00;;;2.10;;
5718;SDS011;2884;47.734;9.244;2022-07-15T08:59:57;6.23;;;2.63;;
5718;SDS011;2884;47.734;9.244;2022-07-15T09:02:22;6.20;;;2.70;;
5718;SDS011;2884;47.734;9.244;2022-07-15T09:10:25;7.73;;;2.67;;
5718;SDS011;2884;47.734;9.244;2022-07-15T09:13:06;5.90;;;2.33;;
5718;SDS011;2884;47.734;9.244;2022-07-15T09:15:32;5.70;;;2.40;;
5718;SDS011;2884;47.734;9.244;2022-07-15T09:18:07;4.43;;;2.17;;
5718;SDS011;2884;47.734;9.244;2022-07-15T09:20:33;12.10;;;2.43;;
5718;SDS011;2884;47.734;9.244;2022-07-15T09:23:00;7.33;;;2.80;;
5718;SDS011;2884;47.734;9.244;2022-07-15T09:25:27;8.10;;;2.40;;
5718;SDS011;2884;47.734;9.244;2022-07-15T09:27:54;2.60;;;2.13;;
5718;SDS011;2884;47.734;9.244;2022-07-15T09:33:19;7.57;;;2.27;;
5718;SDS011;2884;47.734;9.244;2022-07-15T09:38:38;7.63;;;2.70;;
5718;SDS011;2884;47.734;9.244;2022-07-15T09:41:19;3.07;;;2.13;;
5718;SDS011;2884;47.734;9.244;2022-07-15T09:43:49;4.20;;;2.20;;
5718;SDS011;2884;47.734;9.244;2022-07-15T09:46:17;6.83;;;2.60;;
5718;SDS011;2884;47.734;9.244;2022-07-15T09:48:44;4.20;;;2.27;;
5718;SDS011;2884;47.734;9.244;2022-07-15T09:51:11;6.63;;;2.23;;
5718;SDS011;2884;47.734;9.244;2022-07-15T09:53:37;5.73;;;2.37;;
5718;SDS011;2884;47.734;9.244;2022-07-15T09:56:04;7.40;;;2.73;;
5718;SDS011;2884;47.734;9.244;2022-07-15T09:58:33;4.80;;;2.53;;
5718;SDS011;2884;47.734;9.244;2022-07-15T10:01:02;3.23;;;1.80;;
5718;SDS011;2884;47.734;9.244;2022-07-15T10:03:28;8.27;;;1.93;;
5718;SDS011;2884;47.734;9.244;2022-07-15T10:05:54;3.20;;;2.00;;
5718;SDS011;2884;47.734;9.244;2022-07-15T10:08:20;8.40;;;3.27;;
5718;SDS011;2884;47.734;9.244;2022-07-15T10:10:49;4.10;;;2.20;;
5718;SDS011;2884;47.734;9.244;2022-07-15T10:19:14;2.23;;;2.03;;
5718;SDS011;2884;47.734;9.244;2022-07-15T10:29:58;3.73;;;1.80;;
5718;SDS011;2884;47.734;9.244;2022-07-15T10:32:28;3.73;;;2.20;;
5718;SDS011;2884;47.734;9.244;2022-07-15T10:34:54;5.30;;;2.30;;
5718;SDS011;2884;47.734;9.244;2022-07-15T10:37:20;5.47;;;2.50;;
5718;SDS011;2884;47.734;9.244;2022-07-15T10:39:52;2.80;;;2.00;;
5718;SDS011;2884;47.734;9.244;2022-07-15T10:45:34;8.20;;;2.07;;
5718;SDS011;2884;47.734;9.244;2022-07-15T10:48:24;6.13;;;2.73;;
5718;SDS011;2884;47.734;9.244;2022-07-15T10:50:52;8.57;;;2.40;;
5718;SDS011;2884;47.734;9.244;2022-07-15T10:53:20;2.53;;;2.13;;
5718;SDS011;2884;47.734;9.244;2022-07-15T10:55:46;4.63;;;2.10;;
5718;SDS011;2884;47.734;9.244;2022-07-15T10:58:12;3.67;;;2.30;;
5718;SDS011;2884;47.734;9.244;2022-07-15T11:00:38;6.73;;;2.13;;
5718;SDS011;2884;47.734;9.244;2022-07-15T11:03:07;12.23;;;2.87;;
5718;SDS011;2884;47.734;9.244;2022-07-15T11:05:33;2.77;;;1.80;;
5718;SDS011;2884;47.734;9.244;2022-07-15T11:08:00;3.30;;;1.97;;
5718;SDS011;2884;47.734;9.244;2022-07-15T11:13:38;6.33;;;2.97;;
5718;SDS011;2884;47.734;9.244;2022-07-15T11:16:04;2.40;;;2.20;;
5718;SDS011;2884;47.734;9.244;2022-07-15T11:18:43;4.10;;;2.60;;
5718;SDS011;2884;47.734;9.244;2022-07-15T11:21:17;5.27;;;2.67;;
5718;SDS011;2884;47.734;9.244;2022-07-15T11:23:45;6.73;;;2.27;;
5718;SDS011;2884;47.734;9.244;2022-07-15T11:26:11;3.30;;;2.30;;
5718;SDS011;2884;47.734;9.244;2022-07-15T11:28:37;8.30;;;2.70;;
5718;SDS011;2884;47.734;9.244;2022-07-15T11:31:04;4.53;;;2.27;;
5718;SDS011;2884;47.734;9.244;2022-07-15T11:33:30;4.67;;;2.30;;
5718;SDS011;2884;47.734;9.244;2022-07-15T11:35:57;9.53;;;2.60;;
5718;SDS011;2884;47.734;9.244;2022-07-15T11:38:27;4.63;;;2.10;;
5718;SDS011;2884;47.734;9.244;2022-07-15T11:40:55;9.07;;;2.30;;
5718;SDS011;2884;47.734;9.244;2022-07-15T11:43:40;2.60;;;2.13;;
5718;SDS011;2884;47.734;9.244;2022-07-15T11:46:26;4.93;;;2.33;;
5718;SDS011;2884;47.734;9.244;2022-07-15T11:48:55;6.23;;;2.30;;
5718;SDS011;2884;47.734;9.244;2022-07-15T11:51:28;3.40;;;2.50;;
5718;SDS011;2884;47.734;9.244;2022-07-15T11:53:55;8.60;;;2.67;;
5718;SDS011;2884;47.734;9.244;2022-07-15T11:56:22;3.50;;;2.60;;
5718;SDS011;2884;47.734;9.244;2022-07-15T11:58:53;2.77;;;1.90;;
5718;SDS011;2884;47.734;9.244;2022-07-15T12:01:21;2.57;;;2.37;;
5718;SDS011;2884;47.734;9.244;2022-07-15T12:03:52;4.93;;;2.17;;
5718;SDS011;2884;47.734;9.244;2022-07-15T12:06:20;5.47;;;2.90;;
5718;SDS011;2884;47.734;9.244;2022-07-15T12:08:50;5.00;;;2.40;;
5718;SDS011;2884;47.734;9.244;2022-07-15T12:16:49;3.47;;;2.17;;
5718;SDS011;2884;47.734;9.244;2022-07-15T12:21:46;4.77;;;2.20;;
5718;SDS011;2884;47.734;9.244;2022-07-15T12:24:14;4.00;;;2.40;;
5718;SDS011;2884;47.734;9.244;2022-07-15T12:29:15;7.10;;;2.40;;
5718;SDS011;2884;47.734;9.244;2022-07-15T12:31:51;4.10;;;2.40;;
5718;SDS011;2884;47.734;9.244;2022-07-15T12:34:18;6.20;;;2.30;;
5718;SDS011;2884;47.734;9.244;2022-07-15T12:36:54;6.20;;;1.97;;
5718;SDS011;2884;47.734;9.244;2022-07-15T12:39:20;2.87;;;2.60;;
5718;SDS011;2884;47.734;9.244;2022-07-15T12:41:56;2.53;;;2.33;;
5718;SDS011;2884;47.734;9.244;2022-07-15T12:44:24;5.80;;;2.70;;
5718;SDS011;2884;47.734;9.244;2022-07-15T12:46:51;5.70;;;2.70;;
5718;SDS011;2884;47.734;9.244;2022-07-15T12:49:38;5.53;;;2.23;;
5718;SDS011;2884;47.734;9.244;2022-07-15T12:52:20;5.00;;;2.73;;
5718;SDS011;2884;47.734;9.244;2022-07-15T12:54:46;3.07;;;2.50;;
5718;SDS011;2884;47.734;9.244;2022-07-15T12:57:19;9.30;;;2.67;;
5718;SDS011;2884;47.734;9.244;2022-07-15T12:59:53;4.33;;;2.80;;
5718;SDS011;2884;47.734;9.244;2022-07-15T13:02:23;9.30;;;2.10;;
5718;SDS011;2884;47.734;9.244;2022-07-15T13:04:48;12.47;;;2.50;;
5718;SDS011;2884;47.734;9.244;2022-07-15T13:07:15;4.00;;;2.33;;
5718;SDS011;2884;47.734;9.244;2022-07-15T13:09:41;5.10;;;2.47;;
5718;SDS011;2884;47.734;9.244;2022-07-15T13:12:07;2.30;;;2.20;;
5718;SDS011;2884;47.734;9.244;2022-07-15T13:14:34;6.90;;;2.20;;
5718;SDS011;2884;47.734;9.244;2022-07-15T13:17:00;3.87;;;2.57;;
5718;SDS011;2884;47.734;9.244;2022-07-15T13:19:26;5.43;;;2.73;;
5718;SDS011;2884;47.734;9.244;2022-07-15T13:21:52;5.73;;;2.63;;
5718;SDS011;2884;47.734;9.244;2022-07-15T13:24:17;6.87;;;2.50;;
5718;SDS011;2884;47.734;9.244;2022-07-15T13:26:43;3.73;;;2.30;;
5718;SDS011;2884;47.734;9.244;2022-07-15T13:29:09;2.57;;;2.20;;
5718;SDS011;2884;47.734;9.244;2022-07-15T13:31:34;5.87;;;2.80;;
5718;SDS011;2884;47.734;9.244;2022-07-15T13:34:00;3.43;;;2.63;;
5718;SDS011;2884;47.734;9.244;2022-07-15T13:36:25;5.60;;;2.60;;
5718;SDS011;2884;47.734;9.244;2022-07-15T13:38:51;8.73;;;2.50;;
5718;SDS011;2884;47.734;9.244;2022-07-15T13:41:16;5.57;;;2.80;;
5718;SDS011;2884;47.734;9.244;2022-07-15T13:43:42;3.27;;;2.20;;
5718;SDS011;2884;47.734;9.244;2022-07-15T13:46:07;7.10;;;2.70;;
5718;SDS011;2884;47.734;9.244;2022-07-15T13:48:33;5.73;;;2.93;;
5718;SDS011;2884;47.734;9.244;2022-07-15T13:50:59;4.10;;;2.50;;
5718;SDS011;2884;47.734;9.244;2022-07-15T13:53:43;4.77;;;2.00;;
5718;SDS011;2884;47.734;9.244;2022-07-15T13:56:09;6.77;;;2.90;;
5718;SDS011;2884;47.734;9.244;2022-07-15T13:58:35;3.67;;;2.90;;
5718;SDS011;2884;47.734;9.244;2022-07-15T14:01:00;6.40;;;2.47;;
5718;SDS011;2884;47.734;9.244;2022-07-15T14:03:26;4.77;;;2.70;;
5718;SDS011;2884;47.734;9.244;2022-07-15T14:05:51;4.97;;;2.10;;
5718;SDS011;2884;47.734;9.244;2022-07-15T14:08:17;3.07;;;2.37;;
5718;SDS011;2884;47.734;9.244;2022-07-15T14:10:43;1.97;;;1.87;;
5718;SDS011;2884;47.734;9.244;2022-07-15T14:13:09;4.13;;;2.80;;
5718;SDS011;2884;47.734;9.244;2022-07-15T14:15:35;5.70;;;2.43;;
5718;SDS011;2884;47.734;9.244;2022-07-15T14:18:00;12.40;;;3.13;;
5718;SDS011;2884;47.734;9.244;2022-07-15T14:20:26;8.13;;;3.20;;
5718;SDS011;2884;47.734;9.244;2022-07-15T14:22:51;3.70;;;2.20;;
5718;SDS011;2884;47.734;9.244;2022-07-15T14:25:20;5.00;;;2.30;;
5718;SDS011;2884;47.734;9.244;2022-07-15T14:27:46;2.80;;;2.60;;
5718;SDS011;2884;47.734;9.244;2022-07-15T14:30:12;5.77;;;2.73;;
5718;SDS011;2884;47.734;9.244;2022-07-15T14:32:38;5.10;;;2.70;;
5718;SDS011;2884;47.734;9.244;2022-07-15T14:35:05;2.63;;;2.43;;
5718;SDS011;2884;47.734;9.244;2022-07-15T14:37:32;5.00;;;2.53;;
5718;SDS011;2884;47.734;9.244;2022-07-15T14:39:57;4.77;;;3.20;;
5718;SDS011;2884;47.734;9.244;2022-07-15T14:42:23;9.00;;;3.20;;
5718;SDS011;2884;47.734;9.244;2022-07-15T14:44:49;4.37;;;2.80;;
5718;SDS011;2884;47.734;9.244;2022-07-15T14:47:14;5.30;;;3.10;;
5718;SDS011;2884;47.734;9.244;2022-07-15T14:49:40;3.60;;;2.63;;
5718;SDS011;2884;47.734;9.244;2022-07-15T14:52:05;5.80;;;2.87;;
5718;SDS011;2884;47.734;9.244;2022-07-15T14:54:31;12.40;;;3.27;;
5718;SDS011;2884;47.734;9.244;2022-07-15T14:56:56;7.80;;;3.17;;
5718;SDS011;2884;47.734;9.244;2022-07-15T14:59:22;10.20;;;3.40;;
5718;SDS011;2884;47.734;9.244;2022-07-15T15:01:48;4.70;;;2.70;;
5718;SDS011;2884;47.734;9.244;2022-07-15T15:04:13;6.87;;;2.90;;
5718;SDS011;2884;47.734;9.244;2022-07-15T15:06:39;3.93;;;2.83;;
5718;SDS011;2884;47.734;9.244;2022-07-15T15:09:04;2.93;;;2.67;;
5718;SDS011;2884;47.734;9.244;2022-07-15T15:11:30;13.50;;;3.20;;
5718;SDS011;2884;47.734;9.244;2022-07-15T15:13:55;6.30;;;2.63;;
5718;SDS011;2884;47.734;9.244;2022-07-15T15:16:21;4.13;;;2.70;;
5718;SDS011;2884;47.734;9.244;2022-07-15T15:18:46;5.83;;;3.13;;
5718;SDS011;2884;47.734;9.244;2022-07-15T15:21:12;4.23;;;2.90;;
5718;SDS011;2884;47.734;9.244;2022-07-15T15:23:38;4.90;;;2.40;;
5718;SDS011;2884;47.734;9.244;2022-07-15T15:26:03;3.33;;;2.37;;
5718;SDS011;2884;47.734;9.244;2022-07-15T15:28:53;4.03;;;2.70;;
5718;SDS011;2884;47.734;9.244;2022-07-15T15:31:19;2.77;;;2.47;;
5718;SDS011;2884;47.734;9.244;2022-07-15T15:33:44;3.73;;;2.80;;
5718;SDS011;2884;47.734;9.244;2022-07-15T15:36:10;5.20;;;2.60;;
5718;SDS011;2884;47.734;9.244;2022-07-15T15:38:36;6.60;;;2.80;;
5718;SDS011;2884;47.734;9.244;2022-07-15T15:41:02;3.30;;;2.60;;
5718;SDS011;2884;47.734;9.244;2022-07-15T15:43:28;5.90;;;2.80;;
5718;SDS011;2884;47.734;9.244;2022-07-15T15:45:53;7.83;;;3.13;;
5718;SDS011;2884;47.734;9.244;2022-07-15T15:48:18;4.70;;;2.67;;
5718;SDS011;2884;47.734;9.244;2022-07-15T15:50:44;3.30;;;2.70;;
5718;SDS011;2884;47.734;9.244;2022-07-15T15:53:10;3.40;;;2.83;;
5718;SDS011;2884;47.734;9.244;2022-07-15T15:55:35;7.27;;;3.07;;